createdAt,value
2018-11-26T00:01:37.976Z,100342.00
2018-11-26T00:04:05.904Z,100346.00
2018-11-26T00:06:33.796Z,100343.00
2018-11-26T00:09:01.711Z,100335.00
2018-11-26T00:11:31.973Z,100332.00
2018-11-26T00:13:59.895Z,100334.00
2018-11-26T00:16:27.790Z,100336.00
2018-11-26T00:18:55.754Z,100334.00
2018-11-26T00:21:23.676Z,100332.00
2018-11-26T00:23:51.585Z,100331.00
2018-11-26T00:26:19.486Z,100329.00
2018-11-26T00:28:47.392Z,100334.00
2018-11-26T00:31:15.293Z,100344.00
2018-11-26T00:33:43.196Z,100346.00
2018-11-26T00:36:11.108Z,100337.00
2018-11-26T00:38:39.027Z,100334.00
2018-11-26T00:41:06.939Z,100332.00
2018-11-26T00:43:34.840Z,100326.00
2018-11-26T00:46:02.752Z,100332.00
2018-11-26T00:48:30.652Z,100326.00
2018-11-26T00:50:58.569Z,100322.00
2018-11-26T00:53:26.457Z,100317.00
2018-11-26T00:55:54.384Z,100312.00
2018-11-26T00:58:22.281Z,100309.00
2018-11-26T01:00:50.165Z,100313.00
2018-11-26T01:03:18.068Z,100304.00
2018-11-26T01:05:45.988Z,100315.00
2018-11-26T01:08:13.975Z,100317.00
2018-11-26T01:10:41.881Z,100313.00
2018-11-26T01:13:09.804Z,100312.00
2018-11-26T01:15:37.704Z,100310.00
2018-11-26T01:18:06.081Z,100306.00
2018-11-26T01:20:34.008Z,100318.00
2018-11-26T01:23:01.967Z,100320.00
2018-11-26T01:25:29.869Z,100323.00
2018-11-26T01:27:57.761Z,100321.00
2018-11-26T01:30:25.718Z,100325.00
2018-11-26T01:32:53.604Z,100327.00
2018-11-26T01:35:21.499Z,100333.00
2018-11-26T01:37:49.408Z,100331.00
2018-11-26T01:40:20.901Z,100337.00
2018-11-26T01:42:48.928Z,100334.00
2018-11-26T01:45:16.863Z,100334.00
2018-11-26T01:47:44.760Z,100333.00
2018-11-26T01:50:12.712Z,100328.00
2018-11-26T01:52:40.624Z,100334.00
2018-11-26T01:55:09.733Z,100331.00
2018-11-26T01:57:37.695Z,100329.00
2018-11-26T02:00:13.508Z,100332.00
2018-11-26T02:02:42.156Z,100333.00
2018-11-26T02:05:10.385Z,100328.00
2018-11-26T02:07:38.376Z,100331.00
2018-11-26T02:10:08.699Z,100339.00
2018-11-26T02:12:36.676Z,100338.00
2018-11-26T02:15:05.332Z,100338.00
2018-11-26T02:17:33.252Z,100336.00
2018-11-26T02:20:01.144Z,100331.00
2018-11-26T02:22:29.056Z,100332.00
2018-11-26T02:24:56.942Z,100329.00
2018-11-26T02:27:24.851Z,100334.00
2018-11-26T02:29:52.747Z,100332.00
2018-11-26T02:32:20.657Z,100337.00
2018-11-26T02:34:48.580Z,100338.00
2018-11-26T02:37:16.476Z,100338.00
2018-11-26T02:39:44.389Z,100340.00
2018-11-26T02:42:12.344Z,100335.00
2018-11-26T02:44:40.332Z,100341.00
2018-11-26T02:47:08.228Z,100337.00
2018-11-26T02:49:36.122Z,100334.00
2018-11-26T02:52:04.048Z,100338.00
2018-11-26T02:54:31.935Z,100332.00
2018-11-26T02:56:59.833Z,100342.00
2018-11-26T02:59:27.746Z,100334.00
2018-11-26T03:01:55.681Z,100329.00
2018-11-26T03:04:23.596Z,100326.00
2018-11-26T03:06:51.509Z,100329.00
2018-11-26T03:09:19.433Z,100320.00
2018-11-26T03:11:47.340Z,100334.00
2018-11-26T03:14:15.270Z,100327.00
2018-11-26T03:16:43.174Z,100333.00
2018-11-26T03:19:11.080Z,100335.00
2018-11-26T03:21:38.987Z,100331.00
2018-11-26T03:24:06.940Z,100332.00
2018-11-26T03:26:35.040Z,100334.00
2018-11-26T03:29:02.959Z,100329.00
2018-11-26T03:31:30.845Z,100332.00
2018-11-26T03:33:58.756Z,100333.00
2018-11-26T03:36:26.627Z,100328.00
2018-11-26T03:38:55.401Z,100339.00
2018-11-26T03:41:23.831Z,100340.00
2018-11-26T03:43:51.713Z,100340.00
2018-11-26T03:46:19.619Z,100335.00
2018-11-26T03:48:47.501Z,100334.00
2018-11-26T03:51:15.416Z,100338.00
2018-11-26T03:53:43.318Z,100337.00
2018-11-26T03:56:11.254Z,100341.00
2018-11-26T03:58:39.125Z,100337.00
2018-11-26T04:01:07.340Z,100337.00
2018-11-26T04:03:35.224Z,100336.00
2018-11-26T04:06:03.878Z,100338.00
2018-11-26T04:08:31.783Z,100339.00
2018-11-26T04:10:59.681Z,100339.00
2018-11-26T04:13:27.589Z,100338.00
2018-11-26T04:15:55.492Z,100335.00
2018-11-26T04:18:23.376Z,100335.00
2018-11-26T04:20:51.307Z,100343.00
2018-11-26T04:23:19.225Z,100338.00
2018-11-26T04:25:47.153Z,100337.00
2018-11-26T04:28:15.059Z,100341.00
2018-11-26T04:30:42.948Z,100344.00
2018-11-26T04:33:10.860Z,100345.00
2018-11-26T04:35:38.764Z,100339.00
2018-11-26T04:38:06.662Z,100335.00
2018-11-26T04:40:34.580Z,100328.00
2018-11-26T04:43:02.481Z,100325.00
2018-11-26T04:45:30.413Z,100330.00
2018-11-26T04:47:58.329Z,100330.00
2018-11-26T04:50:26.280Z,100326.00
2018-11-26T04:52:54.159Z,100326.00
2018-11-26T04:55:22.036Z,100331.00
2018-11-26T04:57:49.932Z,100327.00
2018-11-26T05:00:17.832Z,100323.00
2018-11-26T05:02:45.720Z,100324.00
2018-11-26T05:05:13.748Z,100322.00
2018-11-26T05:07:41.644Z,100320.00
2018-11-26T05:10:10.773Z,100316.00
2018-11-26T05:12:38.670Z,100320.00
2018-11-26T05:15:08.141Z,100319.00
2018-11-26T05:17:36.040Z,100315.00
2018-11-26T05:20:05.741Z,100319.00
2018-11-26T05:22:33.612Z,100316.00
2018-11-26T05:25:01.513Z,100318.00
2018-11-26T05:27:29.433Z,100312.00
2018-11-26T05:29:57.341Z,100314.00
2018-11-26T05:32:25.259Z,100311.00
2018-11-26T05:34:53.137Z,100308.00
2018-11-26T05:37:21.045Z,100314.00
2018-11-26T05:39:48.920Z,100315.00
2018-11-26T05:42:16.853Z,100314.00
2018-11-26T05:44:44.732Z,100311.00
2018-11-26T05:47:12.632Z,100313.00
2018-11-26T05:49:40.537Z,100309.00
2018-11-26T05:52:08.422Z,100309.00
2018-11-26T05:54:36.370Z,100313.00
2018-11-26T05:57:04.270Z,100315.00
2018-11-26T05:59:32.186Z,100315.00
2018-11-26T06:02:00.111Z,100318.00
2018-11-26T06:04:27.984Z,100320.00
2018-11-26T06:06:55.895Z,100321.00
2018-11-26T06:09:23.813Z,100317.00
2018-11-26T06:11:51.721Z,100323.00
2018-11-26T06:14:19.644Z,100330.00
2018-11-26T06:16:53.453Z,100330.00
2018-11-26T06:19:15.449Z,100326.00
2018-11-26T06:21:43.372Z,100331.00
2018-11-26T06:24:11.314Z,100336.00
2018-11-26T06:26:41.001Z,100333.00
2018-11-26T06:29:08.905Z,100338.00
2018-11-26T06:31:36.811Z,100344.00
2018-11-26T06:34:04.860Z,100340.00
2018-11-26T06:36:32.765Z,100348.00
2018-11-26T06:39:00.684Z,100347.00
2018-11-26T06:41:28.597Z,100352.00
2018-11-26T06:43:56.523Z,100352.00
2018-11-26T06:46:24.460Z,100357.00
2018-11-26T06:48:52.348Z,100362.00
2018-11-26T06:51:20.258Z,100360.00
2018-11-26T06:53:48.150Z,100365.00
2018-11-26T06:56:16.057Z,100373.00
2018-11-26T06:58:43.965Z,100380.00
2018-11-26T07:01:11.868Z,100387.00
2018-11-26T07:03:48.514Z,100387.00
2018-11-26T07:06:16.508Z,100392.00
2018-11-26T07:08:44.425Z,100391.00
2018-11-26T07:11:12.316Z,100388.00
2018-11-26T07:13:40.208Z,100390.00
2018-11-26T07:16:08.144Z,100391.00
2018-11-26T07:18:36.169Z,100394.00
2018-11-26T07:21:04.163Z,100400.00
2018-11-26T07:23:32.080Z,100401.00
2018-11-26T07:25:59.982Z,100404.00
2018-11-26T07:28:27.929Z,100407.00
2018-11-26T07:30:55.830Z,100410.00
2018-11-26T07:33:23.728Z,100412.00
2018-11-26T07:35:51.646Z,100411.00
2018-11-26T07:38:19.550Z,100409.00
2018-11-26T07:40:47.451Z,100413.00
2018-11-26T07:43:15.425Z,100418.00
2018-11-26T07:45:43.348Z,100421.00
2018-11-26T07:48:11.999Z,100426.00
2018-11-26T07:50:39.901Z,100425.00
2018-11-26T07:53:09.067Z,100418.00
2018-11-26T07:55:37.428Z,100415.00
2018-11-26T07:58:05.364Z,100418.00
2018-11-26T08:00:33.252Z,100422.00
2018-11-26T08:03:01.145Z,100428.00
2018-11-26T08:05:29.036Z,100435.00
2018-11-26T08:07:56.944Z,100437.00
2018-11-26T08:10:24.928Z,100442.00
2018-11-26T08:12:53.968Z,100441.00
2018-11-26T08:15:23.787Z,100450.00
2018-11-26T08:17:51.713Z,100448.00
2018-11-26T08:20:19.595Z,100454.00
2018-11-26T08:22:47.615Z,100455.00
2018-11-26T08:25:17.707Z,100459.00
2018-11-26T08:27:46.620Z,100461.00
2018-11-26T08:30:18.383Z,100463.00
2018-11-26T08:32:47.560Z,100463.00
2018-11-26T08:35:16.438Z,100468.00
2018-11-26T08:38:52.634Z,100461.00
2018-11-26T08:41:24.797Z,100465.00
2018-11-26T08:43:57.731Z,100472.00
2018-11-26T08:46:32.425Z,100462.00
2018-11-26T08:49:02.235Z,100463.00
2018-11-26T08:51:30.336Z,100464.00
2018-11-26T08:53:58.264Z,100459.00
2018-11-26T08:56:26.184Z,100467.00
2018-11-26T08:58:54.073Z,100474.00
2018-11-26T09:01:27.339Z,100483.00
2018-11-26T09:03:56.118Z,100481.00
2018-11-26T09:06:24.096Z,100495.00
2018-11-26T09:08:52.021Z,100502.00
2018-11-26T09:11:19.938Z,100506.00
2018-11-26T09:13:47.832Z,100504.00
2018-11-26T09:16:15.732Z,100503.00
2018-11-26T09:18:43.641Z,100511.00
2018-11-26T09:21:11.543Z,100513.00
2018-11-26T09:23:39.436Z,100508.00
2018-11-26T09:26:07.329Z,100513.00
2018-11-26T09:28:35.224Z,100517.00
2018-11-26T09:31:03.117Z,100514.00
2018-11-26T09:33:31.049Z,100521.00
2018-11-26T09:35:58.920Z,100526.00
2018-11-26T09:38:26.884Z,100531.00
2018-11-26T09:40:54.838Z,100527.00
2018-11-26T09:43:22.752Z,100531.00
2018-11-26T09:45:50.673Z,100529.00
2018-11-26T09:48:18.580Z,100530.00
2018-11-26T09:50:46.477Z,100529.00
2018-11-26T09:53:14.393Z,100531.00
2018-11-26T09:55:42.300Z,100532.00
2018-11-26T09:58:10.209Z,100529.00
2018-11-26T10:00:38.091Z,100527.00
2018-11-26T10:03:06.008Z,100527.00
2018-11-26T10:05:33.888Z,100533.00
2018-11-26T10:08:01.803Z,100529.00
2018-11-26T10:10:29.710Z,100525.00
2018-11-26T10:12:57.609Z,100528.00
2018-11-26T10:15:26.465Z,100526.00
2018-11-26T10:17:54.371Z,100529.00
2018-11-26T10:20:22.282Z,100528.00
2018-11-26T10:22:51.332Z,100528.00
2018-11-26T10:25:20.216Z,100533.00
2018-11-26T10:27:48.139Z,100527.00
2018-11-26T10:30:17.380Z,100532.00
2018-11-26T10:32:45.815Z,100532.00
2018-11-26T10:35:14.726Z,100526.00
2018-11-26T10:37:42.617Z,100531.00
2018-11-26T10:40:20.840Z,100532.00
2018-11-26T10:42:48.757Z,100529.00
2018-11-26T10:45:17.742Z,100529.00
2018-11-26T10:47:45.665Z,100528.00
2018-11-26T10:50:15.085Z,100531.00
2018-11-26T10:52:43.925Z,100533.00
2018-11-26T10:55:19.980Z,100528.00
2018-11-26T10:57:47.868Z,100535.00
2018-11-26T11:00:21.797Z,100530.00
2018-11-26T11:02:50.047Z,100530.00
2018-11-26T11:05:17.994Z,100529.00
2018-11-26T11:07:45.940Z,100536.00
2018-11-26T11:10:18.022Z,100538.00
2018-11-26T11:12:45.928Z,100533.00
2018-11-26T11:15:13.993Z,100533.00
2018-11-26T11:17:41.945Z,100535.00
2018-11-26T11:20:11.548Z,100537.00
2018-11-26T11:22:39.460Z,100538.00
2018-11-26T11:25:08.309Z,100540.00
2018-11-26T11:27:36.224Z,100544.00
2018-11-26T11:30:08.213Z,100543.00
2018-11-26T11:32:36.133Z,100547.00
2018-11-26T11:35:04.354Z,100552.00
2018-11-26T11:37:32.422Z,100550.00
2018-11-26T11:40:00.337Z,100546.00
2018-11-26T11:42:28.225Z,100546.00
2018-11-26T11:44:56.138Z,100544.00
2018-11-26T11:47:24.038Z,100542.00
2018-11-26T11:49:51.963Z,100537.00
2018-11-26T11:52:19.862Z,100542.00
2018-11-26T11:54:47.770Z,100537.00
2018-11-26T11:57:15.678Z,100537.00
2018-11-26T11:59:43.589Z,100541.00
2018-11-26T12:02:15.984Z,100538.00
2018-11-26T12:04:41.035Z,100538.00
2018-11-26T12:07:08.952Z,100536.00
2018-11-26T12:09:36.846Z,100538.00
2018-11-26T12:12:04.745Z,100530.00
2018-11-26T12:14:32.690Z,100532.00
2018-11-26T12:17:00.630Z,100535.00
2018-11-26T12:19:28.528Z,100539.00
2018-11-26T12:21:56.466Z,100534.00
2018-11-26T12:24:24.389Z,100528.00
2018-11-26T12:26:52.286Z,100532.00
2018-11-26T12:29:20.194Z,100534.00
2018-11-26T12:31:48.089Z,100534.00
2018-11-26T12:34:16.021Z,100530.00
2018-11-26T12:36:43.942Z,100526.00
2018-11-26T12:39:11.869Z,100528.00
2018-11-26T12:41:39.769Z,100532.00
2018-11-26T12:44:07.701Z,100530.00
2018-11-26T12:46:35.615Z,100527.00
2018-11-26T12:49:03.531Z,100530.00
2018-11-26T12:51:31.808Z,100534.00
2018-11-26T12:53:59.378Z,100536.00
2018-11-26T12:56:27.334Z,100541.00
2018-11-26T12:58:55.238Z,100537.00
2018-11-26T13:01:23.145Z,100540.00
2018-11-26T13:03:51.049Z,100537.00
2018-11-26T13:06:18.966Z,100543.00
2018-11-26T13:08:46.888Z,100542.00
2018-11-26T13:11:14.808Z,100535.00
2018-11-26T13:13:42.746Z,100534.00
2018-11-26T13:16:10.652Z,100536.00
2018-11-26T13:18:38.565Z,100522.00
2018-11-26T13:21:06.514Z,100524.00
2018-11-26T13:23:34.444Z,100522.00
2018-11-26T13:26:02.391Z,100525.00
2018-11-26T13:28:30.303Z,100524.00
2018-11-26T13:30:58.201Z,100527.00
2018-11-26T13:33:26.125Z,100525.00
2018-11-26T13:35:54.021Z,100527.00
2018-11-26T13:38:21.929Z,100525.00
2018-11-26T13:40:49.845Z,100527.00
2018-11-26T13:43:17.991Z,100534.00
2018-11-26T13:45:48.031Z,100536.00
2018-11-26T13:48:17.085Z,100538.00
2018-11-26T13:50:49.898Z,100539.00
2018-11-26T13:53:17.799Z,100543.00
2018-11-26T13:55:45.743Z,100544.00
2018-11-26T13:58:13.648Z,100548.00
2018-11-26T14:00:41.609Z,100546.00
2018-11-26T14:03:09.505Z,100549.00
2018-11-26T14:05:37.433Z,100555.00
2018-11-26T14:08:05.549Z,100551.00
2018-11-26T14:10:33.510Z,100552.00
2018-11-26T14:13:06.292Z,100559.00
2018-11-26T14:15:34.222Z,100557.00
2018-11-26T14:18:02.149Z,100560.00
2018-11-26T14:20:30.075Z,100567.00
2018-11-26T14:22:58.010Z,100561.00
2018-11-26T14:25:25.931Z,100564.00
2018-11-26T14:27:53.886Z,100568.00
2018-11-26T14:30:25.500Z,100570.00
2018-11-26T14:32:53.738Z,100572.00
2018-11-26T14:35:21.767Z,100578.00
2018-11-26T14:37:51.722Z,100580.00
2018-11-26T14:40:23.257Z,100578.00
2018-11-26T14:42:51.214Z,100583.00
2018-11-26T14:45:19.109Z,100588.00
2018-11-26T14:47:47.036Z,100584.00
2018-11-26T14:50:16.065Z,100586.00
2018-11-26T14:52:45.061Z,100591.00
2018-11-26T14:55:17.331Z,100589.00
2018-11-26T14:57:45.246Z,100585.00
2018-11-26T15:00:15.471Z,100588.00
2018-11-26T15:02:43.818Z,100592.00
2018-11-26T15:05:11.657Z,100594.00
2018-11-26T15:07:39.589Z,100596.00
2018-11-26T15:10:09.865Z,100599.00
2018-11-26T15:12:37.826Z,100602.00
2018-11-26T15:15:08.634Z,100600.00
2018-11-26T15:17:36.574Z,100603.00
2018-11-26T15:20:07.375Z,100603.00
2018-11-26T15:22:35.301Z,100603.00
2018-11-26T15:25:03.195Z,100600.00
2018-11-26T15:27:31.089Z,100604.00
2018-11-26T15:29:59.019Z,100607.00
2018-11-26T15:32:26.969Z,100608.00
2018-11-26T15:34:54.886Z,100607.00
2018-11-26T15:37:22.901Z,100610.00
2018-11-26T15:39:50.850Z,100615.00
2018-11-26T15:42:18.813Z,100612.00
2018-11-26T15:44:46.709Z,100613.00
2018-11-26T15:47:14.641Z,100615.00
2018-11-26T15:49:42.577Z,100622.00
2018-11-26T15:52:10.493Z,100620.00
2018-11-26T15:54:38.417Z,100621.00
2018-11-26T15:57:06.358Z,100622.00
2018-11-26T15:59:34.261Z,100625.00
2018-11-26T16:02:02.163Z,100622.00
2018-11-26T16:04:30.082Z,100619.00
2018-11-26T16:06:57.974Z,100626.00
2018-11-26T16:09:25.890Z,100625.00
2018-11-26T16:11:53.833Z,100633.00
2018-11-26T16:14:21.753Z,100634.00
2018-11-26T16:16:49.661Z,100632.00
2018-11-26T16:19:17.621Z,100640.00
2018-11-26T16:21:45.574Z,100636.00
2018-11-26T16:24:13.518Z,100634.00
2018-11-26T16:26:41.450Z,100641.00
2018-11-26T16:29:09.422Z,100644.00
2018-11-26T16:31:37.406Z,100643.00
2018-11-26T16:34:05.974Z,100644.00
2018-11-26T16:36:33.906Z,100643.00
2018-11-26T16:39:01.908Z,100647.00
2018-11-26T16:41:29.821Z,100648.00
2018-11-26T16:43:57.742Z,100653.00
2018-11-26T16:46:25.701Z,100653.00
2018-11-26T16:48:53.625Z,100659.00
2018-11-26T16:51:21.549Z,100657.00
2018-11-26T16:53:49.477Z,100657.00
2018-11-26T16:56:17.409Z,100661.00
2018-11-26T16:58:45.343Z,100658.00
2018-11-26T17:01:13.251Z,100662.00
2018-11-26T17:03:41.169Z,100660.00
2018-11-26T17:06:09.078Z,100661.00
2018-11-26T17:08:37.020Z,100664.00
2018-11-26T17:11:04.941Z,100663.00
2018-11-26T17:13:32.863Z,100673.00
2018-11-26T17:16:00.816Z,100678.00
2018-11-26T17:18:28.743Z,100680.00
2018-11-26T17:20:56.678Z,100683.00
2018-11-26T17:23:24.675Z,100679.00
2018-11-26T17:25:52.581Z,100684.00
2018-11-26T17:28:20.517Z,100684.00
2018-11-26T17:30:48.466Z,100691.00
2018-11-26T17:33:16.405Z,100690.00
2018-11-26T17:35:44.318Z,100693.00
2018-11-26T17:38:12.272Z,100693.00
2018-11-26T17:40:40.614Z,100698.00
2018-11-26T17:43:10.191Z,100697.00
2018-11-26T17:45:38.147Z,100700.00
2018-11-26T17:48:06.575Z,100702.00
2018-11-26T17:50:37.814Z,100705.00
2018-11-26T17:53:11.545Z,100709.00
2018-11-26T17:55:48.286Z,100711.00
2018-11-26T17:58:16.572Z,100715.00
2018-11-26T18:00:46.309Z,100722.00
2018-11-26T18:03:18.115Z,100723.00
2018-11-26T18:05:46.173Z,100727.00
2018-11-26T18:08:15.729Z,100726.00
2018-11-26T18:10:43.700Z,100729.00
2018-11-26T18:13:11.618Z,100730.00
2018-11-26T18:15:39.526Z,100737.00
2018-11-26T18:18:10.665Z,100735.00
2018-11-26T18:20:38.649Z,100735.00
2018-11-26T18:23:07.621Z,100736.00
2018-11-26T18:25:35.554Z,100736.00
2018-11-26T18:28:05.408Z,100744.00
2018-11-26T18:30:36.037Z,100743.00
2018-11-26T18:33:03.958Z,100743.00
2018-11-26T18:35:31.885Z,100748.00
2018-11-26T18:37:59.806Z,100753.00
2018-11-26T18:40:27.782Z,100750.00
2018-11-26T18:42:55.700Z,100755.00
2018-11-26T18:45:23.627Z,100758.00
2018-11-26T18:47:51.559Z,100773.00
2018-11-26T18:50:20.430Z,100776.00
2018-11-26T18:52:49.317Z,100782.00
2018-11-26T18:55:17.498Z,100780.00
2018-11-26T18:57:45.439Z,100781.00
2018-11-26T19:00:14.866Z,100781.00
2018-11-26T19:02:42.843Z,100787.00
2018-11-26T19:05:11.466Z,100785.00
2018-11-26T19:07:39.379Z,100785.00
2018-11-26T19:10:13.671Z,100791.00
2018-11-26T19:12:42.322Z,100793.00
2018-11-26T19:15:16.134Z,100794.00
2018-11-26T19:17:44.101Z,100798.00
2018-11-26T19:20:12.455Z,100803.00
2018-11-26T19:22:40.875Z,100803.00
2018-11-26T19:25:10.269Z,100810.00
2018-11-26T19:27:38.207Z,100807.00
2018-11-26T19:30:11.031Z,100812.00
2018-11-26T19:32:39.281Z,100814.00
2018-11-26T19:35:08.698Z,100816.00
2018-11-26T19:37:36.611Z,100823.00
2018-11-26T19:40:12.228Z,100822.00
2018-11-26T19:42:40.505Z,100831.00
2018-11-26T19:45:12.464Z,100833.00
2018-11-26T19:47:40.394Z,100832.00
2018-11-26T19:50:10.258Z,100832.00
2018-11-26T19:52:38.173Z,100833.00
2018-11-26T19:55:09.218Z,100839.00
2018-11-26T19:57:37.145Z,100844.00
2018-11-26T20:00:09.651Z,100852.00
2018-11-26T20:02:37.562Z,100851.00
2018-11-26T20:05:09.213Z,100854.00
2018-11-26T20:07:37.145Z,100852.00
2018-11-26T20:10:06.467Z,100857.00
2018-11-26T20:12:34.397Z,100861.00
2018-11-26T20:15:03.347Z,100864.00
2018-11-26T20:17:31.370Z,100869.00
2018-11-26T20:19:59.285Z,100876.00
2018-11-26T20:22:27.266Z,100877.00
2018-11-26T20:24:55.169Z,100877.00
2018-11-26T20:27:23.069Z,100879.00
2018-11-26T20:29:51.016Z,100887.00
2018-11-26T20:32:18.941Z,100888.00
2018-11-26T20:34:46.957Z,100888.00
2018-11-26T20:37:14.873Z,100894.00
2018-11-26T20:39:42.822Z,100893.00
2018-11-26T20:42:10.789Z,100894.00
2018-11-26T20:44:38.730Z,100900.00
2018-11-26T20:47:07.306Z,100901.00
2018-11-26T20:49:35.246Z,100907.00
2018-11-26T20:52:03.190Z,100909.00
2018-11-26T20:54:31.131Z,100910.00
2018-11-26T20:56:59.078Z,100908.00
2018-11-26T20:59:27.021Z,100906.00
2018-11-26T21:01:54.974Z,100913.00
2018-11-26T21:04:22.949Z,100907.00
2018-11-26T21:06:50.882Z,100916.00
2018-11-26T21:09:18.873Z,100915.00
2018-11-26T21:11:46.829Z,100919.00
2018-11-26T21:14:14.834Z,100917.00
2018-11-26T21:16:42.761Z,100921.00
2018-11-26T21:19:10.962Z,100927.00
2018-11-26T21:21:38.918Z,100927.00
2018-11-26T21:24:06.845Z,100928.00
2018-11-26T21:26:34.859Z,100930.00
2018-11-26T21:29:02.883Z,100931.00
2018-11-26T21:31:30.854Z,100930.00
2018-11-26T21:33:58.770Z,100927.00
2018-11-26T21:36:26.678Z,100930.00
2018-11-26T21:38:54.806Z,100928.00
2018-11-26T21:41:23.418Z,100929.00
2018-11-26T21:43:51.425Z,100930.00
2018-11-26T21:46:19.365Z,100937.00
2018-11-26T21:48:47.291Z,100936.00
2018-11-26T21:51:15.222Z,100935.00
2018-11-26T21:53:43.159Z,100943.00
2018-11-26T21:56:11.078Z,100943.00
2018-11-26T21:58:39.007Z,100941.00
2018-11-26T22:01:08.677Z,100948.00
2018-11-26T22:03:36.697Z,100952.00
2018-11-26T22:06:05.166Z,100953.00
2018-11-26T22:08:33.088Z,100951.00
2018-11-26T22:11:01.191Z,100954.00
2018-11-26T22:13:29.207Z,100957.00
2018-11-26T22:15:57.113Z,100954.00
2018-11-26T22:18:25.200Z,100960.00
2018-11-26T22:20:53.109Z,100958.00
2018-11-26T22:23:21.085Z,100960.00
2018-11-26T22:25:48.980Z,100961.00
2018-11-26T22:28:16.860Z,100966.00
2018-11-26T22:30:44.763Z,100968.00
2018-11-26T22:33:12.680Z,100973.00
2018-11-26T22:35:40.680Z,100974.00
2018-11-26T22:38:08.614Z,100977.00
2018-11-26T22:40:36.576Z,100977.00
2018-11-26T22:43:04.489Z,100982.00
2018-11-26T22:45:33.441Z,100987.00
2018-11-26T22:48:11.296Z,100991.00
2018-11-26T22:50:41.200Z,100991.00
2018-11-26T22:53:09.502Z,100988.00
2018-11-26T22:55:37.450Z,100991.00
2018-11-26T22:58:08.052Z,100997.00
2018-11-26T23:00:41.046Z,101001.00
2018-11-26T23:03:09.206Z,101003.00
2018-11-26T23:05:37.105Z,101003.00
2018-11-26T23:08:05.382Z,101001.00
2018-11-26T23:10:33.303Z,101003.00
2018-11-26T23:13:01.190Z,101001.00
2018-11-26T23:15:29.111Z,101006.00
2018-11-26T23:17:57.034Z,101002.00
2018-11-26T23:20:24.940Z,101008.00
2018-11-26T23:22:52.837Z,101012.00
2018-11-26T23:25:21.078Z,101010.00
2018-11-26T23:27:49.016Z,101005.00
2018-11-26T23:30:25.111Z,101009.00
2018-11-26T23:32:58.988Z,101007.00
2018-11-26T23:35:26.924Z,101011.00
2018-11-26T23:37:54.863Z,101015.00
2018-11-26T23:40:22.764Z,101016.00
2018-11-26T23:42:50.967Z,101013.00
2018-11-26T23:45:19.917Z,101019.00
2018-11-26T23:47:47.815Z,101021.00
2018-11-26T23:50:16.568Z,101024.00
2018-11-26T23:52:44.904Z,101028.00
2018-11-26T23:55:14.057Z,101026.00
2018-11-26T23:57:42.191Z,101026.00
